createdAt,value
2022-10-30T00:03:48.298Z,15.90
2022-10-30T00:08:44.532Z,16.30
2022-10-30T00:11:13.382Z,16.30
2022-10-30T00:16:09.118Z,15.90
2022-10-30T00:18:38.420Z,16.50
2022-10-30T00:21:11.568Z,16.20
2022-10-30T00:23:39.790Z,16.30
2022-10-30T00:26:07.777Z,16.10
2022-10-30T00:28:35.391Z,16.10
2022-10-30T00:33:31.328Z,16.10
2022-10-30T00:35:59.063Z,16.40
2022-10-30T00:40:54.009Z,16.00
2022-10-30T00:43:39.545Z,15.90
2022-10-30T00:46:28.380Z,16.10
2022-10-30T00:49:05.170Z,16.20
2022-10-30T00:51:33.681Z,16.20
2022-10-30T00:54:03.681Z,16.20
2022-10-30T00:59:08.828Z,16.00
2022-10-30T01:01:39.376Z,16.20
2022-10-30T01:06:40.249Z,16.10
2022-10-30T01:09:08.199Z,15.80
2022-10-30T01:14:08.177Z,15.90
2022-10-30T01:16:57.269Z,16.30
2022-10-30T01:19:34.176Z,16.10
2022-10-30T01:22:16.478Z,15.80
2022-10-30T01:24:58.779Z,15.90
2022-10-30T01:27:44.477Z,16.00
2022-10-30T01:30:30.967Z,15.90
2022-10-30T01:33:17.617Z,15.90
2022-10-30T01:35:52.630Z,15.90
2022-10-30T01:38:28.668Z,16.00
2022-10-30T01:40:56.325Z,16.00
2022-10-30T01:43:23.700Z,16.00
2022-10-30T01:46:17.119Z,16.00
2022-10-30T01:49:06.536Z,16.00
2022-10-30T01:51:50.733Z,16.00
2022-10-30T01:54:44.988Z,16.00
2022-10-30T01:57:55.860Z,16.10
2022-10-30T02:00:23.498Z,16.20
2022-10-30T02:02:51.901Z,15.90
2022-10-30T02:05:45.897Z,16.00
2022-10-30T02:08:13.293Z,16.20
2022-10-30T02:10:42.899Z,16.10
2022-10-30T02:13:11.295Z,15.80
2022-10-30T02:15:39.430Z,16.10
2022-10-30T02:18:06.806Z,16.00
2022-10-30T02:25:35.655Z,16.30
2022-10-30T02:28:03.020Z,16.30
2022-10-30T02:33:02.149Z,15.70
2022-10-30T02:37:57.690Z,15.90
2022-10-30T02:40:27.984Z,16.00
2022-10-30T02:42:57.160Z,15.90
2022-10-30T02:45:24.619Z,15.80
2022-10-30T02:47:52.251Z,16.20
2022-10-30T02:50:19.681Z,15.70
2022-10-30T02:52:47.043Z,15.60
2022-10-30T02:57:42.623Z,15.70
2022-10-30T03:00:11.038Z,15.60
2022-10-30T03:05:06.488Z,15.20
2022-10-30T03:10:01.750Z,15.40
2022-10-30T03:14:57.954Z,15.70
2022-10-30T03:17:25.363Z,15.00
2022-10-30T03:24:48.909Z,15.00
2022-10-30T03:27:17.704Z,14.90
2022-10-30T03:29:45.178Z,15.50
2022-10-30T03:32:13.445Z,15.10
2022-10-30T03:34:52.137Z,15.20
2022-10-30T03:37:19.715Z,15.10
2022-10-30T03:39:47.020Z,15.40
2022-10-30T03:42:14.520Z,15.40
2022-10-30T03:44:42.000Z,15.00
2022-10-30T03:54:42.411Z,15.00
2022-10-30T03:57:11.721Z,15.10
2022-10-30T04:00:00.064Z,15.20
2022-10-30T04:02:49.541Z,15.00
2022-10-30T04:05:20.059Z,15.00
2022-10-30T04:07:48.674Z,15.00
2022-10-30T04:17:51.771Z,14.90
2022-10-30T04:20:22.198Z,14.60
2022-10-30T04:22:49.884Z,14.90
2022-10-30T04:27:53.077Z,14.60
2022-10-30T04:30:21.801Z,15.10
2022-10-30T04:32:51.439Z,14.90
2022-10-30T04:35:21.348Z,14.90
2022-10-30T04:37:59.706Z,14.70
2022-10-30T04:40:31.322Z,14.90
2022-10-30T04:43:03.657Z,14.80
2022-10-30T04:48:04.089Z,15.30
2022-10-30T04:50:33.541Z,14.90
2022-10-30T04:53:07.455Z,15.00
2022-10-30T04:55:35.100Z,15.00
2022-10-30T04:58:03.727Z,14.90
2022-10-30T05:00:34.612Z,15.00
2022-10-30T05:03:18.981Z,15.00
2022-10-30T05:06:16.550Z,14.90
2022-10-30T05:08:43.999Z,14.70
2022-10-30T05:11:23.280Z,14.80
2022-10-30T05:23:41.605Z,15.00
2022-10-30T05:26:09.355Z,15.00
2022-10-30T05:28:38.065Z,14.60
2022-10-30T05:31:05.783Z,15.10
2022-10-30T05:34:01.713Z,15.00
2022-10-30T05:36:32.045Z,15.00
2022-10-30T05:38:59.683Z,15.00
2022-10-30T05:41:33.279Z,15.00
2022-10-30T05:44:00.721Z,15.00
2022-10-30T05:46:28.096Z,15.00
2022-10-30T05:48:57.935Z,15.00
2022-10-30T05:51:25.657Z,15.00
2022-10-30T05:53:56.553Z,15.00
2022-10-30T05:56:27.539Z,15.00
2022-10-30T05:58:57.485Z,15.00
2022-10-30T06:01:24.952Z,15.00
2022-10-30T06:03:57.284Z,15.00
2022-10-30T06:06:24.543Z,15.00
2022-10-30T06:08:51.821Z,15.10
2022-10-30T06:11:38.259Z,15.10
2022-10-30T06:16:41.860Z,14.90
2022-10-30T06:19:22.790Z,15.10
2022-10-30T06:21:52.439Z,15.20
2022-10-30T06:24:26.638Z,15.20
2022-10-30T06:27:14.145Z,15.60
2022-10-30T06:29:41.473Z,15.60
2022-10-30T06:32:08.923Z,15.30
2022-10-30T06:34:38.029Z,15.50
2022-10-30T06:42:47.991Z,15.60
2022-10-30T06:48:05.415Z,15.70
2022-10-30T06:50:38.490Z,15.70
2022-10-30T06:53:05.922Z,15.30
2022-10-30T06:58:20.419Z,15.40
2022-10-30T07:00:54.333Z,15.40
2022-10-30T07:03:27.588Z,15.40
2022-10-30T07:05:54.903Z,15.20
2022-10-30T07:08:22.519Z,15.30
2022-10-30T07:13:36.293Z,15.40
2022-10-30T07:18:58.228Z,15.30
2022-10-30T07:21:27.951Z,15.30
2022-10-30T07:26:38.024Z,15.30
2022-10-30T07:29:25.968Z,15.30
2022-10-30T07:32:25.252Z,15.20
2022-10-30T07:35:14.288Z,15.20
2022-10-30T07:38:07.304Z,15.20
2022-10-30T07:40:44.746Z,15.20
2022-10-30T07:43:30.636Z,15.10
2022-10-30T07:46:16.698Z,15.20
2022-10-30T07:49:06.964Z,15.10
2022-10-30T07:51:43.857Z,15.10
2022-10-30T07:54:13.402Z,15.10
2022-10-30T07:56:40.940Z,15.00
2022-10-30T07:59:26.812Z,15.00
2022-10-30T08:02:12.693Z,15.00
2022-10-30T08:05:03.670Z,15.00
2022-10-30T08:07:41.692Z,15.00
2022-10-30T08:10:09.493Z,15.00
2022-10-30T08:12:38.267Z,15.00
2022-10-30T08:15:07.093Z,15.00
2022-10-30T08:17:41.992Z,15.00
2022-10-30T08:20:10.373Z,15.00
2022-10-30T08:22:58.509Z,15.00
2022-10-30T08:25:28.925Z,15.00
2022-10-30T08:28:06.032Z,15.00
2022-10-30T08:30:38.137Z,15.00
2022-10-30T08:33:13.358Z,15.10
2022-10-30T08:36:01.484Z,15.00
2022-10-30T08:38:29.540Z,15.00
2022-10-30T08:41:17.039Z,15.00
2022-10-30T08:43:51.460Z,15.00
2022-10-30T08:46:19.156Z,15.00
2022-10-30T08:48:46.847Z,15.00
2022-10-30T08:51:14.308Z,15.00
2022-10-30T08:53:45.186Z,15.10
2022-10-30T08:56:16.698Z,15.00
2022-10-30T08:59:06.540Z,15.10
2022-10-30T09:01:36.849Z,15.00
2022-10-30T09:04:19.759Z,15.00
2022-10-30T09:06:55.760Z,15.00
2022-10-30T09:09:55.486Z,14.90
2022-10-30T09:12:24.570Z,14.90
2022-10-30T09:14:51.884Z,14.90
2022-10-30T09:17:19.345Z,14.80
2022-10-30T09:22:31.396Z,15.00
2022-10-30T09:24:58.657Z,15.40
2022-10-30T09:27:44.975Z,15.30
2022-10-30T09:30:14.310Z,14.40
2022-10-30T09:32:45.278Z,14.80
2022-10-30T09:35:17.214Z,15.10
2022-10-30T09:37:45.389Z,14.80
2022-10-30T09:40:29.648Z,14.80
2022-10-30T09:43:18.089Z,14.90
2022-10-30T09:45:56.194Z,14.80
2022-10-30T09:48:46.700Z,14.60
2022-10-30T09:51:42.699Z,14.50
2022-10-30T09:54:17.524Z,14.50
2022-10-30T09:57:01.172Z,14.70
2022-10-30T10:00:06.551Z,14.80
2022-10-30T10:03:13.652Z,14.80
2022-10-30T10:06:02.716Z,14.70
2022-10-30T10:08:57.180Z,15.00
2022-10-30T10:11:57.184Z,15.30
2022-10-30T10:14:28.659Z,15.30
2022-10-30T10:16:58.658Z,15.00
2022-10-30T10:19:33.252Z,14.70
2022-10-30T10:22:03.247Z,15.00
2022-10-30T10:24:34.471Z,14.90
2022-10-30T10:27:23.360Z,14.60
2022-10-30T10:29:59.081Z,15.00
2022-10-30T10:33:04.767Z,14.90
2022-10-30T10:36:02.696Z,15.20
2022-10-30T10:38:39.353Z,14.70
2022-10-30T10:41:21.832Z,15.10
2022-10-30T10:44:03.838Z,15.00
2022-10-30T10:46:55.177Z,15.00
2022-10-30T10:49:42.518Z,14.90
2022-10-30T10:52:15.379Z,14.80
2022-10-30T10:54:46.069Z,15.10
2022-10-30T10:57:30.155Z,14.70
2022-10-30T11:00:13.419Z,14.80
2022-10-30T11:02:56.047Z,14.90
2022-10-30T11:10:21.019Z,15.20
2022-10-30T11:15:35.316Z,14.90
2022-10-30T11:20:55.960Z,15.40
2022-10-30T11:23:49.644Z,15.60
2022-10-30T11:26:23.052Z,15.50
2022-10-30T11:28:50.539Z,15.50
2022-10-30T11:31:49.772Z,15.50
2022-10-30T11:34:20.265Z,15.50
2022-10-30T11:36:49.378Z,15.50
2022-10-30T11:39:20.807Z,15.50
2022-10-30T11:41:57.766Z,15.90
2022-10-30T11:44:32.587Z,15.70
2022-10-30T11:47:00.768Z,15.70
2022-10-30T11:49:44.793Z,15.70
2022-10-30T11:52:15.534Z,15.70
2022-10-30T11:54:48.368Z,15.60
2022-10-30T11:57:33.045Z,15.80
2022-10-30T12:00:04.920Z,15.50
2022-10-30T12:02:45.776Z,15.50
2022-10-30T12:05:39.496Z,15.80
2022-10-30T12:08:06.896Z,16.10
2022-10-30T12:10:42.240Z,15.60
2022-10-30T12:13:16.014Z,15.70
2022-10-30T12:15:45.136Z,15.80
2022-10-30T12:18:25.826Z,15.60
2022-10-30T12:20:56.879Z,15.90
2022-10-30T12:23:26.626Z,16.10
2022-10-30T12:26:00.237Z,16.10
2022-10-30T12:28:30.495Z,16.20
2022-10-30T12:31:03.573Z,16.20
2022-10-30T12:33:56.906Z,16.20
2022-10-30T12:36:28.069Z,16.20
2022-10-30T12:39:01.357Z,16.20
2022-10-30T12:41:35.108Z,16.20
2022-10-30T12:44:30.589Z,16.20
2022-10-30T12:47:25.663Z,16.30
2022-10-30T12:50:00.353Z,16.30
2022-10-30T12:52:37.492Z,16.30
2022-10-30T12:55:21.662Z,16.30
2022-10-30T12:57:54.837Z,16.40
2022-10-30T13:00:22.269Z,16.40
2022-10-30T13:03:01.581Z,16.50
2022-10-30T13:05:55.175Z,16.30
2022-10-30T13:08:55.462Z,16.50
2022-10-30T13:12:00.428Z,16.10
2022-10-30T13:14:40.413Z,16.30
2022-10-30T13:17:15.379Z,15.30
2022-10-30T13:19:46.051Z,16.40
2022-10-30T13:22:25.108Z,16.40
2022-10-30T13:25:32.163Z,16.50
2022-10-30T13:28:17.873Z,16.20
2022-10-30T13:31:06.921Z,16.20
2022-10-30T13:33:45.273Z,15.90
2022-10-30T13:36:19.387Z,16.00
2022-10-30T13:38:58.169Z,16.50
2022-10-30T13:41:42.453Z,16.10
2022-10-30T13:44:27.289Z,16.40
2022-10-30T13:47:13.676Z,16.10
2022-10-30T13:50:03.011Z,16.20
2022-10-30T13:52:32.849Z,16.40
2022-10-30T13:57:40.205Z,16.40
2022-10-30T14:00:16.998Z,16.10
2022-10-30T14:03:10.248Z,16.60
2022-10-30T14:05:54.106Z,16.20
2022-10-30T14:11:00.663Z,16.70
2022-10-30T14:13:53.191Z,17.90
2022-10-30T14:17:03.523Z,18.70
2022-10-30T14:19:30.955Z,18.60
2022-10-30T14:21:58.423Z,19.10
2022-10-30T14:24:33.934Z,19.20
2022-10-30T14:27:04.224Z,19.10
2022-10-30T14:29:34.484Z,19.30
2022-10-30T14:32:22.794Z,19.10
2022-10-30T14:34:50.288Z,18.60
2022-10-30T14:37:38.886Z,18.90
2022-10-30T14:40:40.398Z,19.00
2022-10-30T14:43:26.409Z,18.90
2022-10-30T14:46:00.365Z,18.30
2022-10-30T14:48:38.602Z,17.30
2022-10-30T14:51:16.506Z,17.40
2022-10-30T14:53:52.783Z,17.00
2022-10-30T14:56:42.240Z,16.90
2022-10-30T14:59:15.556Z,16.80
2022-10-30T15:02:14.082Z,17.00
2022-10-30T15:04:56.135Z,17.00
2022-10-30T15:07:42.963Z,16.90
2022-10-30T15:10:31.183Z,17.00
2022-10-30T15:13:21.395Z,17.20
2022-10-30T15:16:05.016Z,17.30
2022-10-30T15:18:32.893Z,17.30
2022-10-30T15:21:05.964Z,17.30
2022-10-30T15:23:35.988Z,17.30
2022-10-30T15:26:09.740Z,17.40
2022-10-30T15:28:39.013Z,17.40
2022-10-30T15:31:21.796Z,17.30
2022-10-30T15:33:49.140Z,17.20
2022-10-30T15:36:29.104Z,17.00
2022-10-30T15:39:14.050Z,16.80
2022-10-30T15:41:46.378Z,16.60
2022-10-30T15:46:53.699Z,16.30
2022-10-30T15:49:29.419Z,16.20
2022-10-30T15:51:57.650Z,16.20
2022-10-30T15:54:27.257Z,16.20
2022-10-30T15:57:31.745Z,16.20
2022-10-30T15:59:56.805Z,16.20
2022-10-30T16:02:26.888Z,16.30
2022-10-30T16:04:54.686Z,16.30
2022-10-30T16:07:29.682Z,16.40
2022-10-30T16:10:04.749Z,16.50
2022-10-30T16:12:34.542Z,16.60
2022-10-30T16:15:08.836Z,16.70
2022-10-30T16:17:36.140Z,16.60
2022-10-30T16:20:04.328Z,16.40
2022-10-30T16:22:38.099Z,16.30
2022-10-30T16:25:09.721Z,16.10
2022-10-30T16:27:44.188Z,16.00
2022-10-30T16:30:15.223Z,15.80
2022-10-30T16:32:48.349Z,15.70
2022-10-30T16:35:15.812Z,15.70
2022-10-30T16:37:44.517Z,15.60
2022-10-30T16:40:13.350Z,15.50
2022-10-30T16:42:40.849Z,15.50
2022-10-30T16:45:11.256Z,15.50
2022-10-30T16:48:08.516Z,15.50
2022-10-30T16:50:38.285Z,15.50
2022-10-30T16:53:26.188Z,15.50
2022-10-30T16:55:54.104Z,15.40
2022-10-30T16:58:23.762Z,15.40
2022-10-30T17:00:54.205Z,15.40
2022-10-30T17:03:26.664Z,15.40
2022-10-30T17:06:06.203Z,15.40
2022-10-30T17:08:39.440Z,15.40
2022-10-30T17:11:15.882Z,15.30
2022-10-30T17:13:52.480Z,15.30
2022-10-30T17:16:30.331Z,15.30
2022-10-30T17:19:21.953Z,15.20
2022-10-30T17:21:51.998Z,15.30
2022-10-30T17:24:23.045Z,15.20
2022-10-30T17:26:58.776Z,15.30
2022-10-30T17:29:37.813Z,15.30
2022-10-30T17:32:13.876Z,15.30
2022-10-30T17:34:41.234Z,15.30
2022-10-30T17:37:08.531Z,15.20
2022-10-30T17:39:36.008Z,15.30
2022-10-30T17:42:04.445Z,15.20
2022-10-30T17:44:35.066Z,15.20
2022-10-30T17:47:17.689Z,15.10
2022-10-30T17:49:46.058Z,15.00
2022-10-30T17:52:15.165Z,15.00
2022-10-30T17:54:44.054Z,14.90
2022-10-30T17:57:12.728Z,14.80
2022-10-30T17:59:40.841Z,14.80
2022-10-30T18:02:14.518Z,14.80
2022-10-30T18:04:44.944Z,14.70
2022-10-30T18:07:13.743Z,14.70
2022-10-30T18:09:43.697Z,14.70
2022-10-30T18:12:14.476Z,14.70
2022-10-30T18:14:43.343Z,14.60
2022-10-30T18:17:11.168Z,14.60
2022-10-30T18:19:38.491Z,14.60
2022-10-30T18:22:05.994Z,14.60
2022-10-30T18:24:33.283Z,14.50
2022-10-30T18:27:00.604Z,14.50
2022-10-30T18:29:27.949Z,14.50
2022-10-30T18:31:55.218Z,14.50
2022-10-30T18:34:22.738Z,14.40
2022-10-30T18:36:50.277Z,14.40
2022-10-30T18:39:17.593Z,14.40
2022-10-30T18:41:46.542Z,14.40
2022-10-30T18:44:17.868Z,14.40
2022-10-30T18:46:46.003Z,14.40
2022-10-30T18:49:13.672Z,14.40
2022-10-30T18:51:41.237Z,14.40
2022-10-30T18:54:14.975Z,14.40
2022-10-30T18:56:42.641Z,14.40
2022-10-30T18:59:09.932Z,14.40
2022-10-30T19:01:37.665Z,14.40
2022-10-30T19:04:09.917Z,14.40
2022-10-30T19:06:38.713Z,14.40
2022-10-30T19:09:06.493Z,14.40
2022-10-30T19:11:34.080Z,14.40
2022-10-30T19:14:01.304Z,14.40
2022-10-30T19:16:28.907Z,14.40
2022-10-30T19:18:56.387Z,14.40
2022-10-30T19:21:25.739Z,14.30
2022-10-30T19:23:55.148Z,14.30
2022-10-30T19:26:22.428Z,14.30
2022-10-30T19:28:49.704Z,14.30
2022-10-30T19:31:18.809Z,14.20
2022-10-30T19:33:49.983Z,14.20
2022-10-30T19:36:36.637Z,14.10
2022-10-30T19:39:11.420Z,14.10
2022-10-30T19:41:39.936Z,14.10
2022-10-30T19:44:07.397Z,14.00
2022-10-30T19:46:35.490Z,14.00
2022-10-30T19:49:18.065Z,14.00
2022-10-30T19:51:45.853Z,14.00
2022-10-30T19:54:13.314Z,14.00
2022-10-30T19:56:43.009Z,13.90
2022-10-30T19:59:15.153Z,13.90
2022-10-30T20:01:44.099Z,13.80
2022-10-30T20:04:11.956Z,13.80
2022-10-30T20:06:39.334Z,13.80
2022-10-30T20:09:10.622Z,13.80
2022-10-30T20:11:38.106Z,13.70
2022-10-30T20:14:05.487Z,13.80
2022-10-30T20:16:32.772Z,13.70
2022-10-30T20:19:00.078Z,13.60
2022-10-30T20:21:27.837Z,13.60
2022-10-30T20:23:55.242Z,13.60
2022-10-30T20:26:27.983Z,13.60
2022-10-30T20:28:55.721Z,13.50
2022-10-30T20:31:23.217Z,13.50
2022-10-30T20:33:50.456Z,13.50
2022-10-30T20:36:17.968Z,13.40
2022-10-30T20:38:45.928Z,13.40
2022-10-30T20:41:25.502Z,13.40
2022-10-30T20:43:53.014Z,13.30
2022-10-30T20:46:21.117Z,13.30
2022-10-30T20:48:48.655Z,13.30
2022-10-30T20:51:17.329Z,13.30
2022-10-30T20:53:44.689Z,13.30
2022-10-30T20:56:11.999Z,13.20
2022-10-30T20:58:40.144Z,13.20
2022-10-30T21:01:08.018Z,13.20
2022-10-30T21:03:35.367Z,13.20
2022-10-30T21:06:02.701Z,13.20
2022-10-30T21:08:31.875Z,13.20
2022-10-30T21:11:00.925Z,13.20
2022-10-30T21:13:28.670Z,13.20
2022-10-30T21:16:01.254Z,13.30
2022-10-30T21:18:28.725Z,13.30
2022-10-30T21:21:07.144Z,13.30
2022-10-30T21:23:34.783Z,13.30
2022-10-30T21:26:03.825Z,13.30
2022-10-30T21:28:31.340Z,13.30
2022-10-30T21:31:03.336Z,13.30
2022-10-30T21:33:34.390Z,13.30
2022-10-30T21:36:12.921Z,13.30
2022-10-30T21:38:42.223Z,13.30
2022-10-30T21:41:13.298Z,13.30
2022-10-30T21:43:41.302Z,13.30
2022-10-30T21:46:10.543Z,13.30
2022-10-30T21:48:38.377Z,13.30
2022-10-30T21:51:14.509Z,13.30
2022-10-30T21:53:42.948Z,13.20
2022-10-30T21:56:13.394Z,13.30
2022-10-30T21:58:40.808Z,13.20
2022-10-30T22:01:23.259Z,13.20
2022-10-30T22:03:51.404Z,13.20
2022-10-30T22:06:20.088Z,13.20
2022-10-30T22:08:49.206Z,13.20
2022-10-30T22:11:17.290Z,13.20
2022-10-30T22:13:45.330Z,13.20
2022-10-30T22:16:15.006Z,13.20
2022-10-30T22:18:42.362Z,13.20
2022-10-30T22:21:12.621Z,13.10
2022-10-30T22:23:40.994Z,13.10
2022-10-30T22:26:15.520Z,13.10
2022-10-30T22:28:43.631Z,13.10
2022-10-30T22:31:13.935Z,13.10
2022-10-30T22:33:42.032Z,13.10
2022-10-30T22:36:17.844Z,13.10
2022-10-30T22:38:45.905Z,13.10
2022-10-30T22:41:18.855Z,13.00
2022-10-30T22:43:47.797Z,13.00
2022-10-30T22:46:17.135Z,13.00
2022-10-30T22:48:46.003Z,13.00
2022-10-30T22:51:15.553Z,13.00
2022-10-30T22:53:46.223Z,12.90
2022-10-30T22:56:25.385Z,12.90
2022-10-30T22:58:53.199Z,12.90
2022-10-30T23:01:23.660Z,12.80
2022-10-30T23:03:52.176Z,12.90
2022-10-30T23:06:20.157Z,12.80
2022-10-30T23:08:48.185Z,12.80
2022-10-30T23:11:15.969Z,12.80
2022-10-30T23:13:45.380Z,12.80
2022-10-30T23:16:19.076Z,12.80
2022-10-30T23:18:47.052Z,12.90
2022-10-30T23:21:17.572Z,13.00
2022-10-30T23:23:45.776Z,13.00
2022-10-30T23:26:19.870Z,13.00
2022-10-30T23:28:48.490Z,13.00
2022-10-30T23:31:39.928Z,13.10
2022-10-30T23:34:10.416Z,13.00
2022-10-30T23:36:37.749Z,13.10
2022-10-30T23:39:08.777Z,13.10
2022-10-30T23:41:36.322Z,13.10
2022-10-30T23:44:07.394Z,13.10
2022-10-30T23:46:35.776Z,13.10
2022-10-30T23:49:04.689Z,13.10
2022-10-30T23:51:32.605Z,13.10
2022-10-30T23:54:00.192Z,13.20
2022-10-30T23:56:29.409Z,13.20
2022-10-30T23:58:57.484Z,13.20
